createdAt,value
2023-03-31T00:00:52.907Z,1.50
2023-03-31T00:03:24.638Z,1.15
2023-03-31T00:06:01.470Z,1.42
2023-03-31T00:08:36.058Z,1.75
2023-03-31T00:11:05.722Z,1.48
2023-03-31T00:13:32.549Z,1.40
2023-03-31T00:16:02.327Z,2.28
2023-03-31T00:21:25.401Z,1.92
2023-03-31T00:24:02.654Z,1.63
2023-03-31T00:26:31.248Z,1.50
2023-03-31T00:28:59.268Z,1.63
2023-03-31T00:31:27.891Z,1.70
2023-03-31T00:33:55.391Z,1.55
2023-03-31T00:36:27.605Z,1.60
2023-03-31T00:39:00.236Z,2.00
2023-03-31T00:41:28.317Z,1.52
2023-03-31T00:44:19.314Z,1.40
2023-03-31T00:47:08.182Z,1.50
2023-03-31T00:49:40.780Z,1.38
2023-03-31T00:52:13.782Z,1.73
2023-03-31T00:54:43.277Z,1.60
2023-03-31T00:57:11.450Z,1.33
2023-03-31T00:59:47.137Z,1.60
2023-03-31T01:02:16.068Z,1.50
2023-03-31T01:04:51.287Z,1.60
2023-03-31T01:07:31.369Z,1.35
2023-03-31T01:10:01.989Z,1.40
2023-03-31T01:12:28.893Z,1.52
2023-03-31T01:14:59.121Z,1.55
2023-03-31T01:20:19.612Z,1.90
2023-03-31T01:23:15.963Z,2.78
2023-03-31T01:26:01.729Z,1.90
2023-03-31T01:28:31.352Z,2.00
2023-03-31T01:31:27.373Z,1.30
2023-03-31T01:34:25.436Z,1.70
2023-03-31T01:37:11.918Z,1.58
2023-03-31T01:40:09.909Z,1.40
2023-03-31T01:42:44.203Z,1.70
2023-03-31T01:45:19.210Z,1.70
2023-03-31T01:47:54.809Z,1.92
2023-03-31T01:50:31.331Z,1.60
2023-03-31T01:52:58.194Z,1.67
2023-03-31T01:55:31.381Z,1.80
2023-03-31T01:58:06.514Z,1.55
2023-03-31T02:00:42.521Z,1.95
2023-03-31T02:03:22.459Z,2.00
2023-03-31T02:05:59.898Z,2.13
2023-03-31T02:08:30.438Z,1.83
2023-03-31T02:10:59.365Z,2.05
2023-03-31T02:16:02.203Z,2.05
2023-03-31T02:18:33.352Z,2.05
2023-03-31T02:21:01.478Z,1.77
2023-03-31T02:23:32.468Z,2.15
2023-03-31T02:26:10.502Z,1.75
2023-03-31T02:28:37.917Z,2.50
2023-03-31T02:31:28.711Z,2.22
2023-03-31T02:33:56.620Z,2.40
2023-03-31T02:36:24.964Z,2.08
2023-03-31T02:38:58.696Z,2.58
2023-03-31T02:41:25.787Z,2.38
2023-03-31T02:43:52.708Z,2.28
2023-03-31T02:46:19.740Z,2.20
2023-03-31T02:48:50.194Z,2.50
2023-03-31T02:51:31.502Z,2.10
2023-03-31T02:54:22.576Z,2.08
2023-03-31T02:57:14.325Z,2.10
2023-03-31T02:59:51.225Z,2.35
2023-03-31T03:02:31.455Z,1.98
2023-03-31T03:05:07.465Z,1.80
2023-03-31T03:07:46.202Z,2.30
2023-03-31T03:10:31.816Z,2.25
2023-03-31T03:13:26.985Z,2.30
2023-03-31T03:16:04.497Z,2.10
2023-03-31T03:18:32.563Z,1.70
2023-03-31T03:20:59.942Z,2.03
2023-03-31T03:23:27.301Z,2.45
2023-03-31T03:25:58.023Z,2.15
2023-03-31T03:28:25.306Z,2.83
2023-03-31T03:30:52.364Z,2.30
2023-03-31T03:33:19.428Z,1.90
2023-03-31T03:35:46.465Z,2.40
2023-03-31T03:38:13.907Z,2.70
2023-03-31T03:40:40.740Z,2.30
2023-03-31T03:43:07.491Z,2.45
2023-03-31T03:45:34.291Z,2.50
2023-03-31T03:48:01.169Z,2.50
2023-03-31T03:50:28.068Z,2.40
2023-03-31T03:52:54.934Z,2.33
2023-03-31T03:55:21.985Z,2.38
2023-03-31T03:57:48.848Z,1.95
2023-03-31T04:00:17.479Z,1.90
2023-03-31T04:02:44.770Z,1.73
2023-03-31T04:05:12.515Z,2.15
2023-03-31T04:07:39.890Z,2.58
2023-03-31T04:10:07.413Z,2.63
2023-03-31T04:12:37.439Z,2.20
2023-03-31T04:15:06.131Z,2.45
2023-03-31T04:17:33.403Z,2.40
2023-03-31T04:20:12.044Z,2.45
2023-03-31T04:22:43.279Z,3.03
2023-03-31T04:25:18.166Z,2.10
2023-03-31T04:27:50.965Z,2.63
2023-03-31T04:32:58.612Z,2.35
2023-03-31T04:35:27.938Z,2.80
2023-03-31T04:37:59.355Z,2.78
2023-03-31T04:40:27.181Z,2.70
2023-03-31T04:42:54.089Z,2.20
2023-03-31T04:45:20.908Z,2.40
2023-03-31T04:47:48.182Z,2.67
2023-03-31T04:50:16.935Z,2.50
2023-03-31T04:52:44.529Z,2.78
2023-03-31T04:55:11.688Z,2.92
2023-03-31T04:57:38.533Z,2.40
2023-03-31T05:00:08.197Z,2.55
2023-03-31T05:02:35.358Z,3.47
2023-03-31T05:05:02.338Z,2.72
2023-03-31T05:09:58.898Z,2.20
2023-03-31T05:12:26.504Z,2.38
2023-03-31T05:14:53.496Z,2.80
2023-03-31T05:17:20.288Z,2.40
2023-03-31T05:19:47.083Z,2.53
2023-03-31T05:22:13.971Z,2.50
2023-03-31T05:24:41.564Z,2.90
2023-03-31T05:27:08.537Z,2.85
2023-03-31T05:29:35.395Z,2.45
2023-03-31T05:32:03.647Z,2.25
2023-03-31T05:34:31.862Z,2.58
2023-03-31T05:36:58.861Z,2.40
2023-03-31T05:39:25.982Z,2.17
2023-03-31T05:41:52.873Z,2.33
2023-03-31T05:44:21.028Z,2.50
2023-03-31T05:46:48.560Z,2.40
2023-03-31T05:49:17.308Z,2.20
2023-03-31T05:51:44.336Z,2.60
2023-03-31T05:54:11.194Z,2.22
2023-03-31T05:56:38.093Z,2.67
2023-03-31T05:59:05.507Z,2.53
2023-03-31T06:01:33.286Z,3.00
2023-03-31T06:04:00.257Z,2.85
2023-03-31T06:06:28.169Z,2.53
2023-03-31T06:08:54.998Z,2.47
2023-03-31T06:11:22.994Z,2.70
2023-03-31T06:13:50.083Z,3.05
2023-03-31T06:16:17.739Z,2.90
2023-03-31T06:18:45.606Z,2.75
2023-03-31T06:21:17.544Z,2.95
2023-03-31T06:23:45.859Z,3.38
2023-03-31T06:26:15.603Z,3.08
2023-03-31T06:28:42.967Z,2.97
2023-03-31T06:31:15.307Z,4.07
2023-03-31T06:33:43.185Z,3.03
2023-03-31T06:36:12.178Z,3.63
2023-03-31T06:38:40.071Z,3.13
2023-03-31T06:41:08.874Z,3.90
2023-03-31T06:43:36.288Z,2.92
2023-03-31T06:46:07.348Z,3.67
2023-03-31T06:48:34.472Z,3.90
2023-03-31T06:51:03.585Z,3.80
2023-03-31T06:53:31.444Z,3.47
2023-03-31T06:55:58.779Z,3.90
2023-03-31T06:58:26.888Z,3.70
2023-03-31T07:00:55.223Z,3.63
2023-03-31T07:03:25.565Z,3.85
2023-03-31T07:05:53.703Z,3.13
2023-03-31T07:08:22.022Z,4.10
2023-03-31T07:10:59.954Z,3.70
2023-03-31T07:13:27.386Z,3.55
2023-03-31T07:15:54.882Z,3.80
2023-03-31T07:18:26.490Z,4.43
2023-03-31T07:20:53.646Z,4.10
2023-03-31T07:23:21.101Z,3.95
2023-03-31T07:25:48.615Z,4.20
2023-03-31T07:28:19.157Z,4.13
2023-03-31T07:30:45.978Z,4.63
2023-03-31T07:33:13.594Z,4.53
2023-03-31T07:35:41.488Z,4.97
2023-03-31T07:38:10.650Z,4.68
2023-03-31T07:40:39.073Z,5.50
2023-03-31T07:43:06.845Z,5.20
2023-03-31T07:45:35.137Z,5.20
2023-03-31T07:48:02.165Z,5.00
2023-03-31T07:50:29.050Z,5.18
2023-03-31T07:52:55.844Z,5.57
2023-03-31T07:55:24.771Z,5.38
2023-03-31T07:57:51.656Z,5.07
2023-03-31T08:00:19.584Z,5.45
2023-03-31T08:02:46.678Z,5.68
2023-03-31T08:05:15.512Z,5.18
2023-03-31T08:07:45.503Z,5.30
2023-03-31T08:10:16.709Z,5.90
2023-03-31T08:12:43.713Z,5.70
2023-03-31T08:15:12.001Z,5.30
2023-03-31T08:17:39.562Z,5.22
2023-03-31T08:20:08.256Z,5.43
2023-03-31T08:22:35.268Z,6.32
2023-03-31T08:25:05.890Z,5.00
2023-03-31T08:27:37.671Z,6.13
2023-03-31T08:30:06.935Z,5.47
2023-03-31T08:32:35.861Z,6.13
2023-03-31T08:35:02.917Z,5.57
2023-03-31T08:39:57.121Z,6.38
2023-03-31T08:42:31.628Z,5.55
2023-03-31T08:45:07.144Z,4.75
2023-03-31T08:47:37.295Z,5.75
2023-03-31T08:50:12.977Z,5.25
2023-03-31T08:52:50.616Z,5.20
2023-03-31T08:55:27.880Z,4.68
2023-03-31T08:58:20.960Z,4.43
2023-03-31T09:00:58.397Z,4.95
2023-03-31T09:03:28.149Z,4.65
2023-03-31T09:06:03.253Z,4.30
2023-03-31T09:08:33.688Z,4.03
2023-03-31T09:11:31.556Z,4.00
2023-03-31T09:14:21.438Z,2.22
2023-03-31T09:16:51.668Z,2.80
2023-03-31T09:19:31.633Z,2.20
2023-03-31T09:22:02.090Z,3.00
2023-03-31T09:24:32.257Z,1.88
2023-03-31T09:27:12.270Z,2.08
2023-03-31T09:29:57.732Z,2.47
2023-03-31T09:32:31.761Z,1.95
2023-03-31T09:35:14.917Z,1.80
2023-03-31T09:37:42.331Z,1.92
2023-03-31T09:40:17.889Z,2.38
2023-03-31T09:42:51.559Z,3.45
2023-03-31T09:45:20.402Z,4.45
2023-03-31T09:47:57.356Z,3.00
2023-03-31T09:50:26.890Z,3.33
2023-03-31T09:52:59.166Z,4.63
2023-03-31T09:55:39.609Z,5.90
2023-03-31T09:58:08.906Z,4.22
2023-03-31T10:00:36.666Z,2.70
2023-03-31T10:03:07.942Z,2.20
2023-03-31T10:05:37.997Z,2.15
2023-03-31T10:08:16.693Z,1.83
2023-03-31T10:11:07.357Z,1.88
2023-03-31T10:13:47.652Z,1.98
2023-03-31T10:16:23.530Z,2.08
2023-03-31T10:18:50.610Z,1.75
2023-03-31T10:21:24.714Z,2.63
2023-03-31T10:23:52.476Z,2.20
2023-03-31T10:26:23.000Z,2.00
2023-03-31T10:28:55.713Z,2.20
2023-03-31T10:33:56.670Z,2.83
2023-03-31T10:38:56.697Z,2.25
2023-03-31T10:44:02.900Z,1.67
2023-03-31T10:46:30.654Z,1.25
2023-03-31T10:49:00.136Z,1.15
2023-03-31T10:51:28.366Z,2.28
2023-03-31T10:54:00.821Z,1.25
2023-03-31T10:56:31.603Z,1.10
2023-03-31T10:59:10.708Z,0.80
2023-03-31T11:01:52.466Z,0.50
2023-03-31T11:04:31.897Z,0.70
2023-03-31T11:07:21.216Z,1.13
2023-03-31T11:10:19.022Z,0.80
2023-03-31T11:13:00.930Z,0.63
2023-03-31T11:15:31.751Z,0.75
2023-03-31T11:18:17.016Z,0.90
2023-03-31T11:21:22.299Z,0.80
2023-03-31T11:24:16.816Z,1.13
2023-03-31T11:26:51.042Z,1.00
2023-03-31T11:32:22.896Z,0.90
2023-03-31T11:34:55.480Z,1.08
2023-03-31T11:37:31.776Z,1.30
2023-03-31T11:40:22.405Z,1.13
2023-03-31T11:42:58.503Z,1.00
2023-03-31T11:45:31.607Z,1.52
2023-03-31T11:48:14.583Z,1.38
2023-03-31T11:50:44.627Z,1.27
2023-03-31T11:53:21.462Z,1.33
2023-03-31T11:55:52.260Z,1.52
2023-03-31T11:58:27.082Z,1.40
2023-03-31T12:01:00.126Z,1.75
2023-03-31T12:03:31.862Z,2.08
2023-03-31T12:06:17.663Z,1.80
2023-03-31T12:09:08.752Z,1.80
2023-03-31T12:12:02.689Z,1.52
2023-03-31T12:14:31.855Z,1.35
2023-03-31T12:17:09.205Z,1.10
2023-03-31T12:19:36.133Z,1.20
2023-03-31T12:22:20.890Z,1.00
2023-03-31T12:24:47.783Z,1.17
2023-03-31T12:27:18.934Z,1.00
2023-03-31T12:30:05.456Z,1.20
2023-03-31T12:32:36.946Z,1.00
2023-03-31T12:35:25.343Z,1.02
2023-03-31T12:38:12.290Z,0.98
2023-03-31T12:41:07.853Z,1.55
2023-03-31T12:44:11.972Z,1.10
2023-03-31T12:46:50.702Z,1.10
2023-03-31T12:49:20.231Z,1.40
2023-03-31T12:52:02.262Z,1.02
2023-03-31T12:54:31.459Z,1.23
2023-03-31T12:57:04.267Z,1.13
2023-03-31T12:59:44.656Z,1.30
2023-03-31T13:02:17.612Z,1.20
2023-03-31T13:04:44.819Z,1.23
2023-03-31T13:07:30.812Z,1.45
2023-03-31T13:09:59.004Z,1.33
2023-03-31T13:12:28.748Z,1.10
2023-03-31T13:17:58.988Z,1.13
2023-03-31T13:20:30.964Z,1.27
2023-03-31T13:23:08.076Z,1.88
2023-03-31T13:25:54.319Z,1.40
2023-03-31T13:28:24.360Z,1.45
2023-03-31T13:30:53.105Z,1.35
2023-03-31T13:33:31.713Z,1.60
2023-03-31T13:36:25.309Z,2.00
2023-03-31T13:39:17.788Z,1.60
2023-03-31T13:42:21.172Z,2.05
2023-03-31T13:45:22.635Z,1.27
2023-03-31T13:48:20.814Z,1.58
2023-03-31T13:50:50.279Z,1.73
2023-03-31T13:56:20.781Z,1.77
2023-03-31T13:59:01.710Z,1.60
2023-03-31T14:01:30.888Z,2.25
2023-03-31T14:04:31.802Z,1.98
2023-03-31T14:07:07.898Z,1.70
2023-03-31T14:09:40.178Z,1.80
2023-03-31T14:12:31.713Z,1.60
2023-03-31T14:14:58.744Z,1.45
2023-03-31T14:17:32.017Z,1.75
2023-03-31T14:20:19.926Z,1.52
2023-03-31T14:22:58.449Z,1.10
2023-03-31T14:25:32.334Z,1.05
2023-03-31T14:28:03.274Z,1.30
2023-03-31T14:30:33.461Z,1.20
2023-03-31T14:33:31.729Z,1.45
2023-03-31T14:36:32.064Z,1.23
2023-03-31T14:39:07.578Z,1.75
2023-03-31T14:41:34.869Z,1.50
2023-03-31T14:44:03.713Z,1.15
2023-03-31T14:46:30.995Z,1.33
2023-03-31T14:48:58.031Z,1.70
2023-03-31T14:53:59.155Z,1.70
2023-03-31T14:56:31.738Z,1.40
2023-03-31T14:58:58.689Z,1.50
2023-03-31T15:03:56.494Z,1.63
2023-03-31T15:06:34.358Z,1.25
2023-03-31T15:09:04.380Z,1.35
2023-03-31T15:11:31.914Z,1.67
2023-03-31T15:14:08.346Z,1.42
2023-03-31T15:16:43.053Z,1.35
2023-03-31T15:19:21.424Z,1.40
2023-03-31T15:21:57.555Z,1.33
2023-03-31T15:24:24.428Z,1.20
2023-03-31T15:27:10.622Z,1.42
2023-03-31T15:29:43.647Z,1.30
2023-03-31T15:32:27.906Z,1.25
2023-03-31T15:34:57.332Z,1.00
2023-03-31T15:37:30.804Z,1.20
2023-03-31T15:40:00.794Z,1.40
2023-03-31T15:42:28.647Z,1.13
2023-03-31T15:44:56.638Z,1.23
2023-03-31T15:50:08.526Z,1.50
2023-03-31T15:52:38.731Z,1.30
2023-03-31T15:55:23.787Z,1.20
2023-03-31T15:57:51.678Z,1.15
2023-03-31T16:00:31.916Z,1.15
2023-03-31T16:03:01.235Z,1.33
2023-03-31T16:05:37.362Z,1.20
2023-03-31T16:08:21.000Z,1.02
2023-03-31T16:10:50.605Z,1.10
2023-03-31T16:13:24.439Z,1.10
2023-03-31T16:15:53.987Z,1.20
2023-03-31T16:18:31.784Z,1.30
2023-03-31T16:21:04.067Z,1.95
2023-03-31T16:23:31.812Z,1.27
2023-03-31T16:26:00.203Z,1.58
2023-03-31T16:30:56.346Z,1.63
2023-03-31T16:33:24.918Z,4.03
2023-03-31T16:35:56.361Z,1.10
2023-03-31T16:38:27.592Z,1.65
2023-03-31T16:40:57.004Z,0.98
2023-03-31T16:43:31.794Z,1.23
2023-03-31T16:46:00.947Z,1.00
2023-03-31T16:50:58.132Z,1.40
2023-03-31T16:55:57.840Z,1.33
2023-03-31T16:58:25.409Z,1.20
2023-03-31T17:00:53.073Z,1.30
2023-03-31T17:03:20.770Z,1.23
2023-03-31T17:05:53.237Z,2.75
2023-03-31T17:08:22.882Z,1.27
2023-03-31T17:11:01.752Z,1.38
2023-03-31T17:13:28.817Z,2.15
2023-03-31T17:16:04.594Z,1.60
2023-03-31T17:18:39.786Z,1.40
2023-03-31T17:21:13.913Z,1.45
2023-03-31T17:23:41.373Z,1.52
2023-03-31T17:26:13.036Z,1.50
2023-03-31T17:28:40.077Z,1.65
2023-03-31T17:31:14.950Z,1.42
2023-03-31T17:33:42.686Z,1.80
2023-03-31T17:36:11.443Z,1.15
2023-03-31T17:38:40.069Z,1.50
2023-03-31T17:41:09.946Z,2.00
2023-03-31T17:43:38.291Z,1.73
2023-03-31T17:46:09.879Z,1.70
2023-03-31T17:48:38.868Z,1.27
2023-03-31T17:51:08.229Z,2.17
2023-03-31T17:53:36.619Z,1.95
2023-03-31T17:56:04.557Z,1.80
2023-03-31T17:58:32.763Z,1.40
2023-03-31T18:00:59.870Z,1.85
2023-03-31T18:05:56.175Z,1.95
2023-03-31T18:08:23.378Z,2.10
2023-03-31T18:10:50.807Z,1.40
2023-03-31T18:13:17.780Z,1.85
2023-03-31T18:15:53.147Z,1.77
2023-03-31T18:18:20.931Z,1.75
2023-03-31T18:20:48.141Z,1.67
2023-03-31T18:23:15.252Z,1.65
2023-03-31T18:25:46.795Z,1.63
2023-03-31T18:28:15.552Z,2.25
2023-03-31T18:30:43.817Z,1.40
2023-03-31T18:33:11.910Z,2.10
2023-03-31T18:35:39.537Z,2.00
2023-03-31T18:38:07.461Z,1.60
2023-03-31T18:40:34.321Z,1.63
2023-03-31T18:43:01.313Z,1.60
2023-03-31T18:47:57.283Z,1.48
2023-03-31T18:50:24.438Z,1.70
2023-03-31T18:52:55.002Z,1.30
2023-03-31T18:55:22.648Z,1.73
2023-03-31T18:57:49.748Z,1.30
2023-03-31T19:00:18.458Z,1.70
2023-03-31T19:02:45.479Z,1.10
2023-03-31T19:05:12.625Z,1.33
2023-03-31T19:07:40.951Z,1.27
2023-03-31T19:10:08.361Z,0.82
2023-03-31T19:12:35.224Z,1.30
2023-03-31T19:15:02.377Z,1.30
2023-03-31T19:17:29.322Z,1.13
2023-03-31T19:19:56.187Z,1.13
2023-03-31T19:22:23.160Z,1.38
2023-03-31T19:24:49.967Z,1.30
2023-03-31T19:27:17.090Z,1.30
2023-03-31T19:29:44.118Z,1.17
2023-03-31T19:32:11.252Z,1.20
2023-03-31T19:34:38.526Z,0.95
2023-03-31T19:37:05.402Z,1.23
2023-03-31T19:39:32.148Z,1.30
2023-03-31T19:41:59.034Z,1.27
2023-03-31T19:44:26.154Z,1.33
2023-03-31T19:46:52.975Z,1.13
2023-03-31T19:49:20.285Z,1.90
2023-03-31T19:51:47.432Z,1.20
2023-03-31T19:54:14.393Z,1.52
2023-03-31T19:56:41.197Z,1.75
2023-03-31T19:59:08.106Z,1.35
2023-03-31T20:01:36.146Z,1.60
2023-03-31T20:04:03.326Z,3.00
2023-03-31T20:06:31.999Z,1.60
2023-03-31T20:09:01.063Z,1.67
2023-03-31T20:13:57.063Z,1.60
2023-03-31T20:16:27.716Z,1.40
2023-03-31T20:18:58.748Z,0.98
2023-03-31T20:21:28.409Z,1.10
2023-03-31T20:23:55.773Z,1.33
2023-03-31T20:28:58.460Z,0.98
2023-03-31T20:33:57.524Z,1.08
2023-03-31T20:36:27.421Z,1.15
2023-03-31T20:38:54.332Z,1.38
2023-03-31T20:41:26.976Z,1.30
2023-03-31T20:43:55.123Z,1.20
2023-03-31T20:46:22.804Z,1.30
2023-03-31T20:48:53.331Z,1.30
2023-03-31T20:51:23.524Z,1.60
2023-03-31T20:53:55.485Z,1.70
2023-03-31T20:56:29.162Z,1.20
2023-03-31T20:58:59.840Z,1.33
2023-03-31T21:04:01.068Z,1.35
2023-03-31T21:08:57.864Z,1.00
2023-03-31T21:11:25.484Z,1.48
2023-03-31T21:13:53.440Z,1.70
2023-03-31T21:16:21.557Z,1.33
2023-03-31T21:18:48.926Z,1.13
2023-03-31T21:21:19.149Z,1.50
2023-03-31T21:23:46.916Z,1.33
2023-03-31T21:26:15.984Z,1.48
2023-03-31T21:28:44.126Z,1.23
2023-03-31T21:31:19.885Z,1.20
2023-03-31T21:33:47.739Z,1.35
2023-03-31T21:36:18.315Z,1.33
2023-03-31T21:38:46.026Z,1.38
2023-03-31T21:41:16.182Z,1.45
2023-03-31T21:43:44.248Z,1.40
2023-03-31T21:46:16.894Z,1.52
2023-03-31T21:48:44.363Z,1.38
2023-03-31T21:51:12.255Z,1.40
2023-03-31T21:53:39.220Z,1.80
2023-03-31T21:56:08.021Z,1.23
2023-03-31T21:58:35.119Z,1.40
2023-03-31T22:01:04.525Z,1.50
2023-03-31T22:03:34.633Z,1.10
2023-03-31T22:06:04.339Z,1.33
2023-03-31T22:08:30.961Z,1.38
2023-03-31T22:11:06.227Z,1.45
2023-03-31T22:13:33.378Z,1.10
2023-03-31T22:16:02.399Z,1.33
2023-03-31T22:20:57.341Z,1.35
2023-03-31T22:23:24.556Z,1.40
2023-03-31T22:25:51.545Z,1.20
2023-03-31T22:28:18.748Z,1.48
2023-03-31T22:30:45.816Z,1.85
2023-03-31T22:33:13.333Z,1.42
2023-03-31T22:35:40.281Z,1.50
2023-03-31T22:38:08.681Z,1.40
2023-03-31T22:40:36.535Z,1.38
2023-03-31T22:43:04.235Z,1.40
2023-03-31T22:47:56.948Z,1.45
2023-03-31T22:50:24.736Z,1.35
2023-03-31T22:52:52.287Z,1.50
2023-03-31T22:55:19.470Z,1.85
2023-03-31T22:57:49.601Z,1.25
2023-03-31T23:00:17.318Z,1.42
2023-03-31T23:02:44.276Z,1.52
2023-03-31T23:05:11.114Z,1.65
2023-03-31T23:07:38.819Z,1.33
2023-03-31T23:10:06.374Z,1.30
2023-03-31T23:12:33.245Z,1.45
2023-03-31T23:15:00.227Z,1.70
2023-03-31T23:17:27.406Z,1.55
2023-03-31T23:19:54.478Z,1.50
2023-03-31T23:22:21.906Z,1.50
2023-03-31T23:24:49.939Z,1.60
2023-03-31T23:27:16.689Z,1.50
2023-03-31T23:29:44.565Z,1.75
2023-03-31T23:32:11.376Z,1.73
2023-03-31T23:34:43.076Z,1.17
2023-03-31T23:37:12.188Z,1.45
2023-03-31T23:39:40.289Z,1.83
2023-03-31T23:42:08.246Z,1.63
2023-03-31T23:44:39.246Z,2.05
2023-03-31T23:47:06.743Z,1.63
2023-03-31T23:49:33.932Z,1.70
2023-03-31T23:52:01.553Z,1.30
2023-03-31T23:54:29.170Z,1.42
2023-03-31T23:56:56.438Z,1.45
2023-03-31T23:59:23.372Z,1.48
